Time;durP1;ratioP1;P1;durP2;ratioP2;P2;SDS_P1;SDS_P2;PMS_P1;PMS_P2;Temp;Humidity;BMP_temperature;BMP_pressure;BME280_temperature;BME280_humidity;BME280_pressure;Samples;Min_cycle;Max_cycle;Signal;HPM_P1;HPM_P2
2023/04/22 00:00:38;;;;;;;2.10;1.13;;;;;;;;;;5057253;28;20199;-64
2023/04/22 00:03:07;;;;;;;1.27;1.17;;;;;;;;;;5057318;28;20245;-64
2023/04/22 00:05:36;;;;;;;1.13;1.03;;;;;;;;;;5057124;28;20816;-65
2023/04/22 00:08:09;;;;;;;1.47;1.40;;;;;;;;;;5053001;28;20268;-65
2023/04/22 00:10:37;;;;;;;1.17;1.07;;;;;;;;;;5037879;28;20290;-66
2023/04/22 00:13:05;;;;;;;1.33;1.23;;;;;;;;;;5037332;28;20235;-65
2023/04/22 00:15:33;;;;;;;2.00;1.57;;;;;;;;;;5037374;28;20227;-65
2023/04/22 00:18:01;;;;;;;1.47;1.37;;;;;;;;;;5037092;28;20263;-65
2023/04/22 00:20:31;;;;;;;2.40;1.20;;;;;;;;;;5044380;28;20195;-64
2023/04/22 00:22:59;;;;;;;2.40;1.20;;;;;;;;;;5057473;28;20211;-65
2023/04/22 00:25:28;;;;;;;1.20;1.10;;;;;;;;;;5049359;28;20235;-64
2023/04/22 00:27:56;;;;;;;1.20;1.10;;;;;;;;;;5053705;28;20233;-65
2023/04/22 00:30:24;;;;;;;1.33;1.20;;;;;;;;;;5057399;28;20207;-66
2023/04/22 00:32:53;;;;;;;1.27;1.20;;;;;;;;;;5056978;28;20249;-65
2023/04/22 00:35:21;;;;;;;1.20;1.10;;;;;;;;;;5057351;28;20237;-65
2023/04/22 00:37:49;;;;;;;2.63;1.17;;;;;;;;;;5059463;28;20256;-65
2023/04/22 00:40:17;;;;;;;1.40;1.13;;;;;;;;;;5060763;28;20245;-65
2023/04/22 00:42:49;;;;;;;1.03;1.03;;;;;;;;;;5061153;28;20207;-65
2023/04/22 00:45:17;;;;;;;1.97;1.20;;;;;;;;;;5061431;28;20227;-65
2023/04/22 00:47:46;;;;;;;1.27;1.17;;;;;;;;;;5060019;28;20214;-65
2023/04/22 00:50:14;;;;;;;1.47;1.27;;;;;;;;;;5061014;28;20214;-65
2023/04/22 00:52:42;;;;;;;1.20;1.10;;;;;;;;;;5061004;28;20229;-65
2023/04/22 00:55:10;;;;;;;1.00;1.00;;;;;;;;;;5060838;28;20318;-64
2023/04/22 00:57:38;;;;;;;1.17;1.07;;;;;;;;;;5060854;28;20362;-65
2023/04/22 01:00:09;;;;;;;1.33;0.90;;;;;;;;;;5060886;28;20234;-65
2023/04/22 01:02:38;;;;;;;1.33;1.10;;;;;;;;;;5060774;28;20234;-65
2023/04/22 01:05:08;;;;;;;1.10;1.00;;;;;;;;;;5060689;28;20230;-65
2023/04/22 01:07:36;;;;;;;2.63;1.10;;;;;;;;;;5051693;28;20546;-65
2023/04/22 01:10:05;;;;;;;1.03;1.00;;;;;;;;;;5040378;28;20243;-61
2023/04/22 01:12:33;;;;;;;1.60;1.13;;;;;;;;;;5040598;28;20227;-62
2023/04/22 01:15:01;;;;;;;1.10;1.10;;;;;;;;;;5040328;28;20578;-65
2023/04/22 01:17:33;;;;;;;2.33;1.00;;;;;;;;;;5040169;28;20208;-65
2023/04/22 01:20:02;;;;;;;1.00;1.00;;;;;;;;;;5043625;28;20207;-63
2023/04/22 01:22:33;;;;;;;1.23;0.90;;;;;;;;;;5060470;28;20215;-65
2023/04/22 01:25:03;;;;;;;0.97;0.93;;;;;;;;;;5055385;28;20637;-65
2023/04/22 01:27:38;;;;;;;1.70;1.00;;;;;;;;;;5044362;28;20619;-65
2023/04/22 01:30:07;;;;;;;1.00;0.90;;;;;;;;;;5055651;28;20199;-65
2023/04/22 01:32:35;;;;;;;0.80;0.80;;;;;;;;;;5048762;28;21071;-65
2023/04/22 01:35:04;;;;;;;1.47;1.10;;;;;;;;;;5047868;28;20219;-65
2023/04/22 01:37:32;;;;;;;2.83;0.90;;;;;;;;;;5052991;28;20199;-65
2023/04/22 01:40:00;;;;;;;1.00;0.90;;;;;;;;;;5048217;28;20211;-66
2023/04/22 01:42:30;;;;;;;1.00;0.90;;;;;;;;;;5039949;28;20203;-66
2023/04/22 01:44:58;;;;;;;2.07;1.40;;;;;;;;;;5039818;28;20238;-66
2023/04/22 01:47:27;;;;;;;0.97;0.97;;;;;;;;;;5041806;28;20207;-65
2023/04/22 01:49:55;;;;;;;1.03;0.80;;;;;;;;;;5060012;28;20211;-63
2023/04/22 01:52:23;;;;;;;4.43;1.03;;;;;;;;;;5059093;28;20257;-65
2023/04/22 01:54:51;;;;;;;1.13;0.97;;;;;;;;;;5048734;28;20226;-65
2023/04/22 01:57:19;;;;;;;2.23;0.87;;;;;;;;;;5046293;28;20203;-66
2023/04/22 01:59:48;;;;;;;1.00;0.90;;;;;;;;;;5056440;28;20203;-66
2023/04/22 02:02:16;;;;;;;1.23;1.23;;;;;;;;;;5058804;28;20673;-65
2023/04/22 02:04:44;;;;;;;1.23;1.20;;;;;;;;;;5059005;28;20207;-66
2023/04/22 02:07:12;;;;;;;0.97;0.97;;;;;;;;;;5059553;28;20235;-66
2023/04/22 02:09:40;;;;;;;1.03;1.03;;;;;;;;;;5059189;28;20728;-66
2023/04/22 02:12:09;;;;;;;1.07;0.97;;;;;;;;;;5058428;28;20218;-66
2023/04/22 02:14:37;;;;;;;1.77;1.13;;;;;;;;;;5043146;28;20235;-66
2023/04/22 02:17:06;;;;;;;0.70;0.70;;;;;;;;;;5039369;28;20223;-66
2023/04/22 02:19:34;;;;;;;0.90;0.90;;;;;;;;;;5038879;28;20246;-66
2023/04/22 02:22:02;;;;;;;1.10;1.10;;;;;;;;;;5046084;28;20207;-66
2023/04/22 02:24:30;;;;;;;0.87;0.87;;;;;;;;;;5058525;28;20552;-65
2023/04/22 02:26:59;;;;;;;1.20;1.10;;;;;;;;;;5051539;28;20223;-65
2023/04/22 02:29:27;;;;;;;1.20;1.10;;;;;;;;;;5059227;28;20294;-65
2023/04/22 02:31:55;;;;;;;1.07;0.97;;;;;;;;;;5058877;28;20262;-64
2023/04/22 02:34:25;;;;;;;1.30;1.00;;;;;;;;;;5043368;28;20214;-63
2023/04/22 02:36:52;;;;;;;1.67;1.30;;;;;;;;;;5050037;28;20227;-65
2023/04/22 02:39:20;;;;;;;1.13;1.00;;;;;;;;;;5038817;28;20212;-65
2023/04/22 02:41:48;;;;;;;0.87;0.87;;;;;;;;;;5038553;28;20235;-66
2023/04/22 02:44:16;;;;;;;1.03;1.00;;;;;;;;;;5038677;28;20242;-65
2023/04/22 02:46:44;;;;;;;1.00;1.00;;;;;;;;;;5038835;28;20228;-65
2023/04/22 02:49:12;;;;;;;4.53;0.93;;;;;;;;;;5038718;28;20204;-65
2023/04/22 02:51:42;;;;;;;1.20;1.10;;;;;;;;;;5038782;28;20299;-64
2023/04/22 02:54:09;;;;;;;2.40;1.77;;;;;;;;;;5050951;28;20229;-64
2023/04/22 02:56:37;;;;;;;0.93;0.90;;;;;;;;;;5058407;28;20234;-64
2023/04/22 02:59:08;;;;;;;1.67;1.00;;;;;;;;;;5058254;28;20242;-64
2023/04/22 03:01:36;;;;;;;0.90;0.90;;;;;;;;;;5058052;28;20285;-64
2023/04/22 03:04:05;;;;;;;1.20;1.10;;;;;;;;;;5058419;28;20237;-62
2023/04/22 03:06:33;;;;;;;1.43;0.90;;;;;;;;;;5058135;28;20732;-64
2023/04/22 03:09:04;;;;;;;1.37;1.10;;;;;;;;;;5058479;28;20253;-63
2023/04/22 03:11:32;;;;;;;1.10;1.00;;;;;;;;;;5057875;28;20670;-63
2023/04/22 03:14:00;;;;;;;1.27;1.17;;;;;;;;;;5050360;28;20254;-63
2023/04/22 03:16:28;;;;;;;0.97;0.97;;;;;;;;;;5038253;28;20224;-63
2023/04/22 03:18:56;;;;;;;1.00;0.90;;;;;;;;;;5037759;28;20745;-63
2023/04/22 03:21:24;;;;;;;0.90;0.90;;;;;;;;;;5052787;28;20705;-63
2023/04/22 03:23:52;;;;;;;0.93;0.80;;;;;;;;;;5057932;28;20249;-63
2023/04/22 03:26:22;;;;;;;2.03;1.00;;;;;;;;;;5049706;28;20246;-63
2023/04/22 03:28:50;;;;;;;1.00;0.97;;;;;;;;;;5058130;28;20290;-63
2023/04/22 03:31:18;;;;;;;2.00;0.97;;;;;;;;;;5057727;28;20210;-63
2023/04/22 03:33:46;;;;;;;7.33;1.43;;;;;;;;;;5056996;28;20258;-63
2023/04/22 03:36:14;;;;;;;1.50;1.27;;;;;;;;;;5053524;28;20733;-63
2023/04/22 03:38:42;;;;;;;1.10;1.00;;;;;;;;;;5038073;28;20238;-63
2023/04/22 03:41:10;;;;;;;0.80;0.80;;;;;;;;;;5037790;28;20216;-63
2023/04/22 03:43:39;;;;;;;1.07;0.93;;;;;;;;;;5037824;28;20750;-63
2023/04/22 03:46:07;;;;;;;1.10;1.00;;;;;;;;;;5037609;28;20223;-63
2023/04/22 03:48:38;;;;;;;0.87;0.87;;;;;;;;;;5037846;28;20214;-63
2023/04/22 03:51:06;;;;;;;1.00;1.00;;;;;;;;;;5037622;28;20211;-63
2023/04/22 03:53:34;;;;;;;0.93;0.93;;;;;;;;;;5047335;28;20223;-63
2023/04/22 03:56:02;;;;;;;1.33;1.00;;;;;;;;;;5057195;28;20249;-63
2023/04/22 03:58:30;;;;;;;1.10;0.90;;;;;;;;;;5057512;28;20214;-62
2023/04/22 04:00:59;;;;;;;0.70;0.70;;;;;;;;;;5044744;28;20291;-62
2023/04/22 04:03:27;;;;;;;1.17;0.87;;;;;;;;;;5040664;28;20705;-63
2023/04/22 04:05:57;;;;;;;1.03;0.97;;;;;;;;;;5037730;28;20242;-63
2023/04/22 04:08:25;;;;;;;1.07;0.90;;;;;;;;;;5037540;28;20700;-63
2023/04/22 04:10:53;;;;;;;0.90;0.90;;;;;;;;;;5037369;28;20211;-63
2023/04/22 04:13:21;;;;;;;0.77;0.77;;;;;;;;;;5040951;28;20231;-63
2023/04/22 04:15:49;;;;;;;1.07;0.80;;;;;;;;;;5053232;28;20260;-63
2023/04/22 04:18:20;;;;;;;0.93;0.93;;;;;;;;;;5061137;28;20763;-63
2023/04/22 04:20:48;;;;;;;1.57;0.90;;;;;;;;;;5061374;28;20207;-63
2023/04/22 04:23:16;;;;;;;1.37;0.90;;;;;;;;;;5061536;28;20205;-63
2023/04/22 04:25:44;;;;;;;0.83;0.80;;;;;;;;;;5053272;28;20318;-63
2023/04/22 04:28:12;;;;;;;1.63;0.80;;;;;;;;;;5061517;28;20217;-70
2023/04/22 04:30:41;;;;;;;1.70;1.00;;;;;;;;;;5061516;28;20202;-70
2023/04/22 04:33:10;;;;;;;3.07;1.10;;;;;;;;;;5060937;28;20229;-70
2023/04/22 04:35:42;;;;;;;1.33;0.90;;;;;;;;;;5060302;28;20286;-70
2023/04/22 04:38:10;;;;;;;1.00;1.00;;;;;;;;;;5061332;28;20210;-70
2023/04/22 04:40:38;;;;;;;1.37;1.00;;;;;;;;;;5061117;28;20289;-70
2023/04/22 04:43:07;;;;;;;1.23;1.00;;;;;;;;;;5061190;28;20218;-70
2023/04/22 04:45:36;;;;;;;1.87;1.00;;;;;;;;;;5060877;28;20723;-70
2023/04/22 04:48:05;;;;;;;1.87;0.80;;;;;;;;;;5060818;28;20582;-70
2023/04/22 04:50:34;;;;;;;1.93;1.00;;;;;;;;;;5060770;28;20566;-70
2023/04/22 04:53:03;;;;;;;1.53;1.00;;;;;;;;;;5061010;28;20222;-70
2023/04/22 04:55:31;;;;;;;0.70;0.70;;;;;;;;;;5059592;28;20584;-69
2023/04/22 04:57:59;;;;;;;0.87;0.87;;;;;;;;;;5058618;28;20234;-62
2023/04/22 05:00:27;;;;;;;1.20;1.00;;;;;;;;;;5060422;28;20538;-62
2023/04/22 05:02:55;;;;;;;1.73;1.30;;;;;;;;;;5067232;28;20202;-63
2023/04/22 05:05:23;;;;;;;1.30;1.30;;;;;;;;;;5057838;28;20618;-63
2023/04/22 05:07:52;;;;;;;1.87;0.83;;;;;;;;;;5060494;28;20203;-63
2023/04/22 05:10:22;;;;;;;1.53;0.80;;;;;;;;;;5060070;28;20199;-63
2023/04/22 05:12:50;;;;;;;1.93;1.00;;;;;;;;;;5060439;28;20211;-63
2023/04/22 05:15:18;;;;;;;0.70;0.70;;;;;;;;;;5060078;28;20230;-62
2023/04/22 05:17:46;;;;;;;2.63;1.00;;;;;;;;;;5060045;28;20294;-63
2023/04/22 05:20:14;;;;;;;1.13;1.10;;;;;;;;;;5054740;28;20200;-62
2023/04/22 05:22:42;;;;;;;0.97;0.97;;;;;;;;;;5055767;28;20199;-64
2023/04/22 05:25:10;;;;;;;1.47;1.00;;;;;;;;;;5054437;28;20752;-64
2023/04/22 05:27:40;;;;;;;0.73;0.73;;;;;;;;;;5057989;28;20620;-64
2023/04/22 05:30:08;;;;;;;5.87;1.33;;;;;;;;;;5060204;28;20207;-64
2023/04/22 05:32:37;;;;;;;1.20;0.97;;;;;;;;;;5059057;28;20195;-64
2023/04/22 05:35:05;;;;;;;0.60;0.60;;;;;;;;;;5059199;28;20254;-65
2023/04/22 05:37:33;;;;;;;2.30;1.10;;;;;;;;;;5059641;28;20250;-64
2023/04/22 05:40:01;;;;;;;1.17;0.90;;;;;;;;;;5059346;28;20274;-64
2023/04/22 05:42:29;;;;;;;1.43;1.10;;;;;;;;;;5059595;28;20269;-65
2023/04/22 05:44:58;;;;;;;1.33;0.97;;;;;;;;;;5059544;28;20690;-64
2023/04/22 05:47:26;;;;;;;2.37;1.30;;;;;;;;;;5058463;28;20233;-64
2023/04/22 05:49:54;;;;;;;0.73;0.73;;;;;;;;;;5059511;28;20270;-64
2023/04/22 05:52:22;;;;;;;1.00;1.00;;;;;;;;;;5059415;28;20242;-65
2023/04/22 05:54:50;;;;;;;1.20;1.10;;;;;;;;;;5058927;28;20231;-64
2023/04/22 05:57:18;;;;;;;1.17;0.90;;;;;;;;;;5056152;28;20268;-64
2023/04/22 05:59:46;;;;;;;2.00;0.83;;;;;;;;;;5059565;28;20292;-64
2023/04/22 06:02:16;;;;;;;2.93;0.97;;;;;;;;;;5058970;28;20657;-64
2023/04/22 06:04:44;;;;;;;0.80;0.80;;;;;;;;;;5059046;28;20654;-64
2023/04/22 06:07:12;;;;;;;1.10;1.10;;;;;;;;;;5054398;28;20662;-64
2023/04/22 06:09:40;;;;;;;1.23;0.90;;;;;;;;;;5039379;28;20249;-64
2023/04/22 06:12:09;;;;;;;1.37;1.10;;;;;;;;;;5042006;28;20353;-64
2023/04/22 06:14:37;;;;;;;1.20;0.93;;;;;;;;;;5058944;28;20281;-64
2023/04/22 06:17:05;;;;;;;1.00;1.00;;;;;;;;;;5039473;28;20798;-62
2023/04/22 06:19:34;;;;;;;1.63;1.13;;;;;;;;;;5038724;28;20231;-64
2023/04/22 06:22:02;;;;;;;2.83;1.20;;;;;;;;;;5053135;28;20359;-64
2023/04/22 06:24:30;;;;;;;1.27;1.00;;;;;;;;;;5055483;28;20230;-64
2023/04/22 06:26:58;;;;;;;0.80;0.80;;;;;;;;;;5049087;28;20258;-63
2023/04/22 06:29:29;;;;;;;2.20;0.90;;;;;;;;;;5058262;28;20298;-63
2023/04/22 06:31:57;;;;;;;0.90;0.90;;;;;;;;;;5059200;28;20207;-63
2023/04/22 06:34:25;;;;;;;1.60;0.90;;;;;;;;;;5057982;28;20231;-64
2023/04/22 06:36:54;;;;;;;1.00;1.00;;;;;;;;;;5058802;28;20259;-63
2023/04/22 06:39:22;;;;;;;1.20;0.80;;;;;;;;;;5058080;28;20206;-63
2023/04/22 06:41:50;;;;;;;1.27;1.20;;;;;;;;;;5045720;28;20207;-63
2023/04/22 06:44:18;;;;;;;1.60;1.10;;;;;;;;;;5038923;28;20203;-63
2023/04/22 06:46:46;;;;;;;3.00;1.10;;;;;;;;;;5039220;28;20601;-63
2023/04/22 06:49:14;;;;;;;0.80;0.80;;;;;;;;;;5038679;28;20235;-62
2023/04/22 06:51:42;;;;;;;0.87;0.80;;;;;;;;;;5038611;28;20229;-62
2023/04/22 06:54:11;;;;;;;2.20;1.00;;;;;;;;;;5045504;28;20222;-64
2023/04/22 06:56:39;;;;;;;1.00;1.00;;;;;;;;;;5056689;28;20230;-63
2023/04/22 06:59:07;;;;;;;1.10;1.10;;;;;;;;;;5058058;28;20234;-63
2023/04/22 07:01:35;;;;;;;1.50;0.80;;;;;;;;;;5058556;28;20237;-62
2023/04/22 07:04:03;;;;;;;0.80;0.80;;;;;;;;;;5049127;28;20659;-62
2023/04/22 07:06:31;;;;;;;1.57;1.10;;;;;;;;;;5038098;28;20594;-62
2023/04/22 07:08:59;;;;;;;1.60;0.80;;;;;;;;;;5047580;28;20212;-62
2023/04/22 07:11:30;;;;;;;0.83;0.80;;;;;;;;;;5040538;28;20209;-62
2023/04/22 07:13:58;;;;;;;0.80;0.80;;;;;;;;;;5038428;28;20211;-63
2023/04/22 07:16:26;;;;;;;3.73;1.20;;;;;;;;;;5037947;28;20231;-63
2023/04/22 07:18:54;;;;;;;1.27;0.80;;;;;;;;;;5037719;28;20715;-63
2023/04/22 07:21:22;;;;;;;1.10;1.00;;;;;;;;;;5052377;28;20209;-63
2023/04/22 07:23:50;;;;;;;1.10;1.10;;;;;;;;;;5057966;28;20546;-63
2023/04/22 07:26:19;;;;;;;1.17;1.13;;;;;;;;;;5048163;28;20210;-64
2023/04/22 07:28:49;;;;;;;1.53;1.33;;;;;;;;;;5055929;28;20207;-63
2023/04/22 07:31:17;;;;;;;3.00;1.27;;;;;;;;;;5041656;28;20246;-63
2023/04/22 07:33:45;;;;;;;7.20;1.10;;;;;;;;;;5045305;28;20788;-63
2023/04/22 07:36:13;;;;;;;1.30;1.20;;;;;;;;;;5053684;28;20250;-63
2023/04/22 07:38:41;;;;;;;1.30;1.20;;;;;;;;;;5057950;28;20238;-63
2023/04/22 07:41:09;;;;;;;2.03;1.10;;;;;;;;;;5053582;28;20282;-63
2023/04/22 07:43:37;;;;;;;3.37;1.90;;;;;;;;;;5038035;28;20290;-63
2023/04/22 07:46:06;;;;;;;1.40;1.00;;;;;;;;;;5049440;28;20222;-63
2023/04/22 07:48:34;;;;;;;0.90;0.90;;;;;;;;;;5057747;28;20230;-63
2023/04/22 07:51:02;;;;;;;0.90;0.90;;;;;;;;;;5057765;28;20238;-63
2023/04/22 07:53:30;;;;;;;2.10;1.10;;;;;;;;;;5057878;28;20274;-63
2023/04/22 07:55:58;;;;;;;1.70;1.00;;;;;;;;;;5057341;28;20337;-63
2023/04/22 07:58:28;;;;;;;1.10;1.10;;;;;;;;;;5057750;28;20266;-63
2023/04/22 08:00:56;;;;;;;2.00;1.00;;;;;;;;;;5056465;28;20245;-64
2023/04/22 08:03:26;;;;;;;1.60;0.97;;;;;;;;;;5044521;28;20199;-63
2023/04/22 08:05:56;;;;;;;2.70;1.00;;;;;;;;;;5042585;28;20230;-63
2023/04/22 08:08:24;;;;;;;1.37;1.10;;;;;;;;;;5051019;28;20207;-64
2023/04/22 08:10:52;;;;;;;1.20;1.10;;;;;;;;;;5057509;28;20203;-63
2023/04/22 08:13:20;;;;;;;1.20;1.10;;;;;;;;;;5057304;28;20233;-63
2023/04/22 08:15:48;;;;;;;1.20;1.10;;;;;;;;;;5057479;28;20230;-64
2023/04/22 08:18:16;;;;;;;1.20;1.10;;;;;;;;;;5054353;28;20271;-63
2023/04/22 08:20:45;;;;;;;1.27;1.17;;;;;;;;;;5054398;28;20592;-63
2023/04/22 08:23:13;;;;;;;1.17;1.10;;;;;;;;;;5057141;28;20701;-63
2023/04/22 08:25:41;;;;;;;2.13;1.37;;;;;;;;;;5049023;28;20250;-63
2023/04/22 08:28:09;;;;;;;1.97;1.00;;;;;;;;;;5057509;28;20238;-63
2023/04/22 08:30:37;;;;;;;1.50;1.40;;;;;;;;;;5054835;28;20201;-63
2023/04/22 08:33:05;;;;;;;2.23;1.13;;;;;;;;;;5050283;28;20209;-62
2023/04/22 08:35:34;;;;;;;4.00;1.10;;;;;;;;;;5045827;28;20262;-63
2023/04/22 08:38:04;;;;;;;2.17;1.40;;;;;;;;;;5037441;28;20250;-62
2023/04/22 08:40:35;;;;;;;2.60;1.63;;;;;;;;;;5036975;28;20254;-63
2023/04/22 08:43:04;;;;;;;1.20;0.93;;;;;;;;;;5037377;28;20211;-62
2023/04/22 08:45:32;;;;;;;1.47;0.93;;;;;;;;;;5037319;28;20223;-62
2023/04/22 08:48:00;;;;;;;1.50;1.20;;;;;;;;;;5043086;28;20245;-64
2023/04/22 08:50:30;;;;;;;1.63;1.10;;;;;;;;;;5054066;28;20203;-64
2023/04/22 08:52:58;;;;;;;0.97;0.97;;;;;;;;;;5048027;28;20204;-62
2023/04/22 08:55:28;;;;;;;2.67;1.10;;;;;;;;;;5038860;28;20393;-62
2023/04/22 08:57:56;;;;;;;2.10;1.07;;;;;;;;;;5049190;28;20569;-62
2023/04/22 09:00:24;;;;;;;1.23;0.90;;;;;;;;;;5047729;28;20203;-62
2023/04/22 09:02:53;;;;;;;1.57;1.23;;;;;;;;;;5044243;28;20211;-62
2023/04/22 09:05:22;;;;;;;1.03;1.03;;;;;;;;;;5056735;28;20648;-64
2023/04/22 09:07:51;;;;;;;1.07;1.07;;;;;;;;;;5060353;28;20221;-62
2023/04/22 09:10:20;;;;;;;1.20;1.20;;;;;;;;;;5060336;28;20235;-65
2023/04/22 09:12:49;;;;;;;1.00;1.00;;;;;;;;;;5060163;28;20235;-62
2023/04/22 09:15:17;;;;;;;4.37;1.30;;;;;;;;;;5057194;28;20597;-62
2023/04/22 09:17:45;;;;;;;1.30;1.20;;;;;;;;;;5058822;28;20211;-63
2023/04/22 09:20:14;;;;;;;3.47;1.03;;;;;;;;;;5055145;28;20204;-63
2023/04/22 09:22:43;;;;;;;1.17;1.00;;;;;;;;;;5047553;28;20207;-63
2023/04/22 09:25:17;;;;;;;1.13;0.80;;;;;;;;;;5045284;28;20725;-64
2023/04/22 09:27:50;;;;;;;1.63;1.27;;;;;;;;;;5058631;28;20229;-64
2023/04/22 09:30:19;;;;;;;2.80;1.50;;;;;;;;;;5059543;28;20211;-64
2023/04/22 09:32:53;;;;;;;1.00;1.00;;;;;;;;;;5052466;28;20207;-62
2023/04/22 09:35:28;;;;;;;1.90;1.20;;;;;;;;;;5040087;28;20285;-63
2023/04/22 09:37:57;;;;;;;1.13;0.90;;;;;;;;;;5049241;28;20203;-63
2023/04/22 09:40:25;;;;;;;2.13;1.07;;;;;;;;;;5054344;28;20207;-63
2023/04/22 09:42:55;;;;;;;1.17;1.17;;;;;;;;;;5039922;28;20223;-63
2023/04/22 09:45:27;;;;;;;0.90;0.90;;;;;;;;;;5039741;28;20318;-63
2023/04/22 09:47:55;;;;;;;2.67;1.30;;;;;;;;;;5045273;28;20203;-65
2023/04/22 09:50:25;;;;;;;1.40;1.10;;;;;;;;;;5059588;28;20241;-63
2023/04/22 09:52:56;;;;;;;1.10;1.00;;;;;;;;;;5058562;28;20229;-64
2023/04/22 09:55:26;;;;;;;2.53;1.00;;;;;;;;;;5059143;28;20222;-63
2023/04/22 09:57:56;;;;;;;1.10;1.00;;;;;;;;;;5059368;28;20318;-62
2023/04/22 10:00:25;;;;;;;1.57;1.10;;;;;;;;;;5047303;28;20826;-63
2023/04/22 10:02:53;;;;;;;1.10;1.00;;;;;;;;;;5055792;28;20203;-63
2023/04/22 10:05:22;;;;;;;2.70;1.40;;;;;;;;;;5045106;28;20228;-64
2023/04/22 10:07:51;;;;;;;1.00;1.00;;;;;;;;;;5039291;28;20215;-63
2023/04/22 10:10:19;;;;;;;1.23;1.13;;;;;;;;;;5039142;28;20742;-63
2023/04/22 10:12:47;;;;;;;2.80;1.10;;;;;;;;;;5039317;28;20211;-64
2023/04/22 10:15:16;;;;;;;2.07;1.30;;;;;;;;;;5038995;28;20587;-63
2023/04/22 10:17:45;;;;;;;1.97;1.10;;;;;;;;;;5044129;28;20258;-63
2023/04/22 10:20:16;;;;;;;1.50;1.00;;;;;;;;;;5053000;28;20204;-63
2023/04/22 10:22:45;;;;;;;1.60;1.23;;;;;;;;;;5051041;28;20233;-63
2023/04/22 10:25:14;;;;;;;1.10;1.00;;;;;;;;;;5047216;28;20233;-63
2023/04/22 10:27:41;;;;;;;1.70;1.20;;;;;;;;;;5058049;28;20210;-64
2023/04/22 10:30:11;;;;;;;2.60;1.20;;;;;;;;;;5058688;28;20608;-65
2023/04/22 10:32:40;;;;;;;2.83;1.20;;;;;;;;;;5058057;28;20217;-65
2023/04/22 10:35:10;;;;;;;1.30;1.17;;;;;;;;;;5044610;28;20231;-62
2023/04/22 10:37:41;;;;;;;2.03;1.13;;;;;;;;;;5038983;28;20259;-63
2023/04/22 10:40:11;;;;;;;2.40;1.13;;;;;;;;;;5053917;28;20651;-64
2023/04/22 10:42:40;;;;;;;1.50;1.40;;;;;;;;;;5058070;28;20199;-64
2023/04/22 10:45:12;;;;;;;2.20;1.30;;;;;;;;;;5042730;28;20231;-64
2023/04/22 10:47:41;;;;;;;1.73;1.63;;;;;;;;;;5038319;28;20204;-64
2023/04/22 10:50:10;;;;;;;1.97;1.40;;;;;;;;;;5038717;28;20242;-64
2023/04/22 10:52:39;;;;;;;2.10;1.70;;;;;;;;;;5040479;28;20243;-65
2023/04/22 10:55:07;;;;;;;1.50;1.40;;;;;;;;;;5055687;28;20230;-65
2023/04/22 10:57:40;;;;;;;1.60;1.50;;;;;;;;;;5057709;28;20761;-65
2023/04/22 11:00:18;;;;;;;1.83;1.30;;;;;;;;;;5050886;28;20229;-65
2023/04/22 11:02:51;;;;;;;5.50;1.30;;;;;;;;;;5038052;28;20655;-65
2023/04/22 11:05:20;;;;;;;1.20;0.93;;;;;;;;;;5043307;28;20318;-65
2023/04/22 11:07:53;;;;;;;1.77;1.00;;;;;;;;;;5057953;28;20292;-63
2023/04/22 11:10:33;;;;;;;0.80;0.80;;;;;;;;;;5057715;28;20294;-64
2023/04/22 11:13:01;;;;;;;3.07;1.07;;;;;;;;;;5051418;28;20290;-64
2023/04/22 11:15:30;;;;;;;1.43;1.00;;;;;;;;;;5048085;28;20252;-66
2023/04/22 11:17:59;;;;;;;2.83;1.20;;;;;;;;;;5038431;28;20318;-65
2023/04/22 11:20:28;;;;;;;1.90;1.20;;;;;;;;;;5044484;28;20199;-65
2023/04/22 11:22:57;;;;;;;2.57;1.17;;;;;;;;;;5048071;28;20217;-65
2023/04/22 11:25:26;;;;;;;2.63;1.20;;;;;;;;;;5043128;28;20281;-64
2023/04/22 11:27:54;;;;;;;4.60;1.30;;;;;;;;;;5044642;28;20718;-64
2023/04/22 11:30:23;;;;;;;1.30;1.20;;;;;;;;;;5055519;28;20561;-64
2023/04/22 11:32:51;;;;;;;2.90;1.17;;;;;;;;;;5037885;28;20213;-64
2023/04/22 11:35:22;;;;;;;1.83;1.30;;;;;;;;;;5048682;28;20243;-64
2023/04/22 11:37:51;;;;;;;1.37;1.20;;;;;;;;;;5051361;28;20258;-64
2023/04/22 11:40:20;;;;;;;1.50;1.40;;;;;;;;;;5057215;28;20215;-64
2023/04/22 11:42:59;;;;;;;3.10;1.30;;;;;;;;;;5056985;28;20238;-64
2023/04/22 11:45:28;;;;;;;2.30;1.20;;;;;;;;;;5056467;28;20594;-63
2023/04/22 11:47:56;;;;;;;1.67;1.57;;;;;;;;;;5056569;28;20214;-63
2023/04/22 11:50:26;;;;;;;1.90;1.40;;;;;;;;;;5047019;28;20211;-64
2023/04/22 11:52:55;;;;;;;1.57;1.43;;;;;;;;;;5038681;28;20211;-64
2023/04/22 11:55:25;;;;;;;2.67;1.60;;;;;;;;;;5045171;28;20314;-64
2023/04/22 11:57:55;;;;;;;3.17;1.20;;;;;;;;;;5048868;28;20230;-64
2023/04/22 12:00:23;;;;;;;6.00;1.73;;;;;;;;;;5050806;28;20194;-64
2023/04/22 12:03:01;;;;;;;1.97;1.07;;;;;;;;;;5057530;28;20234;-65
2023/04/22 12:05:34;;;;;;;1.47;1.37;;;;;;;;;;5056641;28;20230;-64
2023/04/22 12:08:03;;;;;;;2.33;1.30;;;;;;;;;;5051881;28;20655;-64
2023/04/22 12:10:33;;;;;;;1.57;1.30;;;;;;;;;;5057165;28;20202;-64
2023/04/22 12:13:01;;;;;;;1.10;1.10;;;;;;;;;;5057338;28;20618;-64
2023/04/22 12:15:37;;;;;;;2.70;1.43;;;;;;;;;;5057230;28;20245;-64
2023/04/22 12:18:07;;;;;;;1.77;1.10;;;;;;;;;;5057011;28;20586;-64
2023/04/22 12:20:38;;;;;;;4.43;1.30;;;;;;;;;;5055895;28;20286;-64
2023/04/22 12:23:12;;;;;;;2.97;1.73;;;;;;;;;;5057041;28;20211;-64
2023/04/22 12:25:40;;;;;;;1.57;1.30;;;;;;;;;;5039566;28;20227;-64
2023/04/22 12:28:08;;;;;;;3.63;1.70;;;;;;;;;;5057535;28;20207;-64
2023/04/22 12:30:36;;;;;;;2.07;1.50;;;;;;;;;;5057481;28;20207;-64
2023/04/22 12:33:05;;;;;;;3.90;1.67;;;;;;;;;;5057433;28;20264;-64
2023/04/22 12:35:33;;;;;;;2.37;1.60;;;;;;;;;;5049185;28;20219;-63
2023/04/22 12:38:02;;;;;;;3.00;1.50;;;;;;;;;;5060051;28;20231;-64
2023/04/22 12:40:30;;;;;;;1.90;1.57;;;;;;;;;;5050916;28;20802;-65
2023/04/22 12:42:58;;;;;;;2.30;1.70;;;;;;;;;;5049069;28;20200;-66
2023/04/22 12:45:26;;;;;;;2.27;1.60;;;;;;;;;;5049442;28;20753;-66
2023/04/22 12:47:54;;;;;;;6.30;1.57;;;;;;;;;;5050485;28;20196;-65
2023/04/22 12:50:22;;;;;;;4.47;2.00;;;;;;;;;;5052532;28;20199;-65
2023/04/22 12:52:50;;;;;;;3.93;1.63;;;;;;;;;;5050436;28;20195;-65
2023/04/22 12:55:20;;;;;;;3.27;2.30;;;;;;;;;;5051105;28;20223;-65
2023/04/22 12:57:48;;;;;;;3.10;1.60;;;;;;;;;;5051348;28;20237;-65
2023/04/22 13:00:17;;;;;;;4.40;1.90;;;;;;;;;;5050264;28;20206;-65
2023/04/22 13:02:46;;;;;;;2.60;1.50;;;;;;;;;;5050116;28;20200;-65
2023/04/22 13:05:15;;;;;;;2.90;1.93;;;;;;;;;;5052533;28;20276;-65
2023/04/22 13:07:44;;;;;;;3.50;1.57;;;;;;;;;;5051794;28;20191;-65
2023/04/22 13:10:21;;;;;;;1.97;1.60;;;;;;;;;;5051052;28;20210;-65
2023/04/22 13:12:49;;;;;;;3.93;1.93;;;;;;;;;;5049797;28;20727;-65
2023/04/22 13:15:21;;;;;;;3.23;1.57;;;;;;;;;;5048994;28;20218;-66
2023/04/22 13:17:51;;;;;;;2.73;1.70;;;;;;;;;;5048800;28;20219;-66
2023/04/22 13:20:19;;;;;;;4.70;2.03;;;;;;;;;;5059476;28;20230;-66
2023/04/22 13:22:47;;;;;;;3.43;2.00;;;;;;;;;;5059308;28;20218;-65
2023/04/22 13:25:15;;;;;;;3.27;1.70;;;;;;;;;;5046664;28;20243;-65
2023/04/22 13:27:44;;;;;;;5.33;1.90;;;;;;;;;;5058629;28;20210;-65
2023/04/22 13:30:13;;;;;;;3.33;2.00;;;;;;;;;;5059849;28;20212;-65
2023/04/22 13:32:41;;;;;;;4.37;2.27;;;;;;;;;;5059859;28;20233;-64
2023/04/22 13:35:09;;;;;;;5.50;1.53;;;;;;;;;;5059506;28;20733;-64
2023/04/22 13:37:37;;;;;;;6.47;3.20;;;;;;;;;;5047984;28;20210;-65
2023/04/22 13:40:05;;;;;;;5.03;2.10;;;;;;;;;;5053642;28;20203;-64
2023/04/22 13:42:33;;;;;;;4.70;2.00;;;;;;;;;;5053090;28;20198;-64
2023/04/22 13:45:03;;;;;;;6.03;1.90;;;;;;;;;;5050937;28;20254;-65
2023/04/22 13:47:31;;;;;;;5.77;2.17;;;;;;;;;;5057981;28;20211;-64
2023/04/22 13:50:00;;;;;;;3.27;2.43;;;;;;;;;;5055427;28;20600;-64
2023/04/22 13:52:28;;;;;;;6.60;2.50;;;;;;;;;;5059376;28;20207;-63
2023/04/22 13:54:56;;;;;;;3.50;1.97;;;;;;;;;;5059197;28;20243;-63
2023/04/22 13:57:24;;;;;;;4.60;2.03;;;;;;;;;;5058797;28;20203;-64
2023/04/22 13:59:52;;;;;;;3.90;1.57;;;;;;;;;;5054115;28;20231;-63
2023/04/22 14:02:22;;;;;;;6.73;2.20;;;;;;;;;;5039732;28;20212;-64
2023/04/22 14:04:50;;;;;;;3.63;1.80;;;;;;;;;;5039251;28;20675;-64
2023/04/22 14:07:18;;;;;;;4.57;2.00;;;;;;;;;;5039378;28;20235;-64
2023/04/22 14:09:46;;;;;;;4.07;2.00;;;;;;;;;;5039296;28;20214;-64
2023/04/22 14:12:14;;;;;;;3.17;2.10;;;;;;;;;;5042817;28;20282;-65
2023/04/22 14:14:42;;;;;;;2.00;1.70;;;;;;;;;;5059489;28;20245;-64
2023/04/22 14:17:10;;;;;;;7.67;3.10;;;;;;;;;;5050395;28;20235;-64
2023/04/22 14:19:39;;;;;;;2.53;2.33;;;;;;;;;;5039606;28;20266;-64
2023/04/22 14:22:08;;;;;;;3.17;2.00;;;;;;;;;;5052173;28;20633;-64
2023/04/22 14:24:36;;;;;;;7.23;2.27;;;;;;;;;;5054112;28;20762;-64
2023/04/22 14:27:04;;;;;;;2.43;1.83;;;;;;;;;;5054251;28;20372;-64
2023/04/22 14:29:32;;;;;;;3.37;2.17;;;;;;;;;;5045126;28;20227;-64
2023/04/22 14:32:00;;;;;;;6.23;2.10;;;;;;;;;;5045747;28;20203;-64
2023/04/22 14:34:28;;;;;;;2.30;2.03;;;;;;;;;;5058783;28;20210;-64
2023/04/22 14:36:58;;;;;;;2.10;1.77;;;;;;;;;;5057738;28;20258;-64
2023/04/22 14:39:26;;;;;;;4.60;1.90;;;;;;;;;;5051748;28;20219;-66
2023/04/22 14:41:54;;;;;;;2.57;1.50;;;;;;;;;;5038641;28;20207;-65
2023/04/22 14:44:22;;;;;;;3.13;2.67;;;;;;;;;;5043684;28;20210;-65
2023/04/22 14:46:50;;;;;;;2.17;1.50;;;;;;;;;;5047936;28;20596;-62
2023/04/22 14:49:18;;;;;;;1.73;1.63;;;;;;;;;;5049328;28;20200;-63
2023/04/22 14:51:46;;;;;;;2.07;1.47;;;;;;;;;;5058282;28;20211;-63